KAFO

Details ICAO KAFO
Name AFTON MUNI
Region United States
Timezone America/Denver (UTC-7.0)
Plans Departing 6
Arriving 3
Stats Elevation 6,221 ft / 1,896 m (AMSL)
Location 42.708770° -110.942168°
Runways 1
Magnetic Variation 11.346° E
Sunrise 2017-12-15 14:48:45 UTC / 2017-12-15 07:48:45 Local
Sunset 2017-12-15 23:52:10 UTC / 2017-12-15 16:52:10 Local
Advertisement - Login to hide

Runways

ID Width Length Bearing (true) Bearing (mag) Surface Threshold Offset Overrun Length
16 75 ft / 23 m 7,030 ft / 2,143 m 180.20° 168.85° Asphalt 0 ft / 0 m 0 ft / 0 m
34 75 ft / 23 m 7,030 ft / 2,143 m 0.20° 348.85° Asphalt 0 ft / 0 m 0 ft / 0 m

Map

Weather


0- 5 10 15 20 25 30 35+ Temperature / ° C

Clouds and Precipitation
Forecast for 2017-12-16 00:00 UTC. Updated 27 minutes ago

Ground ~20,000 ft ~40,000 ft Winds

METAR

KAFO 152135Z AUTO 00000KT 10SM CLR M01/M07 A3011 RMK AO2

TAF

Not found

Frequencies

Recorded 119.02 MHz AWOS 3
Unicom 122.80 MHz CTAF/UNICOM
Warning: Do not use this data for real-world aviation or navigation. No guarantee of current accuracy is given.